Time;durP1;ratioP1;P1;durP2;ratioP2;P2;SDS_P1;SDS_P2;PMS_P1;PMS_P2;Temp;Humidity;BMP_temperature;BMP_pressure;BME280_temperature;BME280_humidity;BME280_pressure;Samples;Min_cycle;Max_cycle;Signal;HPM_P1;HPM_P2
2021/12/31 00:00:09;;;;;;;;;;;11.60;99.90;;;;;;5074134;28;19909;-77
2021/12/31 00:02:35;;;;;;;;;;;11.60;99.90;;;;;;5075536;28;19908;-76
2021/12/31 00:05:00;;;;;;;;;;;11.60;99.90;;;;;;5075346;28;20411;-76
2021/12/31 00:07:26;;;;;;;;;;;11.60;99.90;;;;;;5075305;28;19974;-78
2021/12/31 00:09:52;;;;;;;;;;;11.60;99.90;;;;;;5075207;28;19909;-76
2021/12/31 00:12:17;;;;;;;;;;;11.70;99.90;;;;;;5074919;28;19930;-75
2021/12/31 00:14:43;;;;;;;;;;;11.70;99.90;;;;;;5075286;28;19917;-77
2021/12/31 00:17:08;;;;;;;;;;;11.60;99.90;;;;;;5073723;28;20007;-78
2021/12/31 00:19:40;;;;;;;;;;;11.60;99.90;;;;;;5075014;28;19915;-77
2021/12/31 00:22:32;;;;;;;;;;;11.60;99.90;;;;;;5075075;28;20397;-77
2021/12/31 00:24:51;;;;;;;;;;;11.70;99.90;;;;;;5074760;28;20422;-77
2021/12/31 00:27:17;;;;;;;;;;;11.60;99.90;;;;;;5075106;28;19913;-77
2021/12/31 00:29:43;;;;;;;;;;;11.50;99.90;;;;;;5075092;28;19908;-77
2021/12/31 00:32:08;;;;;;;;;;;11.50;99.90;;;;;;5074741;28;19909;-77
2021/12/31 00:34:34;;;;;;;;;;;11.50;99.90;;;;;;5074677;28;19909;-76
2021/12/31 00:36:59;;;;;;;;;;;11.50;99.90;;;;;;5074862;28;19915;-76
2021/12/31 00:39:25;;;;;;;;;;;11.40;99.90;;;;;;5074640;28;19914;-76
2021/12/31 00:41:51;;;;;;;;;;;11.40;99.90;;;;;;5074481;28;19909;-77
2021/12/31 00:44:16;;;;;;;;;;;11.30;99.90;;;;;;5075084;28;19909;-77
2021/12/31 00:46:42;;;;;;;;;;;11.30;99.90;;;;;;5074438;28;19947;-75
2021/12/31 00:49:07;;;;;;;;;;;11.20;99.90;;;;;;5074739;28;19958;-76
2021/12/31 00:51:33;;;;;;;;;;;11.20;99.90;;;;;;5074375;28;19908;-76
2021/12/31 00:53:59;;;;;;;;;;;11.10;99.90;;;;;;5073344;28;20369;-77
2021/12/31 00:56:24;;;;;;;;;;;11.10;99.90;;;;;;5072896;28;19912;-75
2021/12/31 00:58:50;;;;;;;;;;;11.10;99.90;;;;;;5072897;28;19915;-76
2021/12/31 01:01:19;;;;;;;;;;;11.00;99.90;;;;;;5074233;28;19908;-77
2021/12/31 01:03:45;;;;;;;;;;;11.00;99.90;;;;;;5072748;28;19909;-77
2021/12/31 01:06:11;;;;;;;;;;;11.00;99.90;;;;;;5074474;28;19913;-77
2021/12/31 01:08:37;;;;;;;;;;;11.00;99.90;;;;;;5074210;28;19908;-77
2021/12/31 01:11:02;;;;;;;;;;;11.00;99.90;;;;;;5073899;28;19909;-76
2021/12/31 01:13:36;;;;;;;;;;;11.00;99.90;;;;;;5072465;28;19962;-78
2021/12/31 01:16:03;;;;;;;;;;;11.00;99.90;;;;;;5074141;28;19913;-76
2021/12/31 01:21:14;;;;;;;;;;;11.00;99.90;;;;;;5074018;28;19916;-77
2021/12/31 01:23:39;;;;;;;;;;;11.10;99.90;;;;;;5073929;28;19908;-77
2021/12/31 01:26:05;;;;;;;;;;;11.20;99.90;;;;;;5073870;28;20049;-77
2021/12/31 01:28:30;;;;;;;;;;;11.10;99.90;;;;;;5074316;28;19909;-77
2021/12/31 01:30:56;;;;;;;;;;;11.10;99.90;;;;;;5073780;28;19909;-76
2021/12/31 01:33:22;;;;;;;;;;;11.00;99.90;;;;;;5073890;28;19908;-76
2021/12/31 01:35:47;;;;;;;;;;;11.00;99.90;;;;;;5073703;28;19916;-76
2021/12/31 01:38:15;;;;;;;;;;;10.90;99.90;;;;;;5073723;28;19915;-76
2021/12/31 01:40:40;;;;;;;;;;;10.90;99.90;;;;;;5072287;28;20008;-76
2021/12/31 01:43:06;;;;;;;;;;;10.80;99.90;;;;;;5072373;28;19944;-77
2021/12/31 01:45:34;;;;;;;;;;;10.80;99.90;;;;;;5073608;28;19912;-75
2021/12/31 01:48:07;;;;;;;;;;;10.80;99.90;;;;;;5073775;28;20376;-78
2021/12/31 01:50:33;;;;;;;;;;;10.70;99.90;;;;;;5073640;28;19944;-77
2021/12/31 01:52:59;;;;;;;;;;;10.70;99.90;;;;;;5073565;28;19915;-77
2021/12/31 01:55:27;;;;;;;;;;;10.70;99.90;;;;;;5073511;28;19920;-76
2021/12/31 01:57:53;;;;;;;;;;;10.70;99.90;;;;;;5072250;28;20282;-75
2021/12/31 02:00:19;;;;;;;;;;;10.70;99.90;;;;;;5073515;28;19908;-77
2021/12/31 02:02:45;;;;;;;;;;;10.70;99.90;;;;;;5073660;28;19924;-77
2021/12/31 02:05:11;;;;;;;;;;;10.70;99.90;;;;;;5072172;28;20003;-77
2021/12/31 02:07:37;;;;;;;;;;;10.70;99.90;;;;;;5073479;28;19955;-77
2021/12/31 02:10:03;;;;;;;;;;;10.70;99.90;;;;;;5072037;28;20347;-76
2021/12/31 02:12:29;;;;;;;;;;;10.70;99.90;;;;;;5073281;28;19920;-76
2021/12/31 02:14:55;;;;;;;;;;;10.80;99.90;;;;;;5073554;28;20369;-78
2021/12/31 02:17:20;;;;;;;;;;;10.80;99.90;;;;;;5077354;28;19916;-77
2021/12/31 02:20:05;;;;;;;;;;;10.80;99.90;;;;;;5077321;28;20422;-77
2021/12/31 02:22:31;;;;;;;;;;;10.80;99.90;;;;;;5077604;28;19956;-75
2021/12/31 02:24:57;;;;;;;;;;;10.80;99.90;;;;;;5077299;28;19978;-77
2021/12/31 02:27:23;;;;;;;;;;;10.70;99.90;;;;;;5077306;28;19913;-76
2021/12/31 02:29:49;;;;;;;;;;;10.70;99.90;;;;;;5077110;28;19919;-76
2021/12/31 02:32:15;;;;;;;;;;;10.60;99.90;;;;;;5077065;28;19909;-75
2021/12/31 02:34:41;;;;;;;;;;;10.60;99.90;;;;;;5077124;28;19948;-76
2021/12/31 02:37:06;;;;;;;;;;;10.50;99.90;;;;;;5077081;28;20378;-76
2021/12/31 02:39:34;;;;;;;;;;;10.50;99.90;;;;;;5076876;28;19909;-77
2021/12/31 02:42:00;;;;;;;;;;;10.50;99.90;;;;;;5076850;28;20407;-75
2021/12/31 02:44:25;;;;;;;;;;;10.50;99.90;;;;;;5076823;28;19948;-77
2021/12/31 02:46:51;;;;;;;;;;;10.50;99.90;;;;;;5076793;28;19951;-76
2021/12/31 02:49:22;;;;;;;;;;;10.60;99.90;;;;;;5076740;28;20316;-76
2021/12/31 02:51:48;;;;;;;;;;;10.60;99.90;;;;;;5075218;28;19978;-77
2021/12/31 02:54:15;;;;;;;;;;;10.60;99.90;;;;;;5076674;28;20426;-76
2021/12/31 02:56:41;;;;;;;;;;;10.60;99.90;;;;;;5076644;28;19912;-77
2021/12/31 02:59:08;;;;;;;;;;;10.60;99.90;;;;;;5076580;28;19958;-77
2021/12/31 03:01:34;;;;;;;;;;;10.50;99.90;;;;;;5076540;28;19908;-77
2021/12/31 03:04:00;;;;;;;;;;;10.60;99.90;;;;;;5076574;28;19908;-78
2021/12/31 03:06:27;;;;;;;;;;;10.50;99.90;;;;;;5076681;28;19912;-76
2021/12/31 03:08:53;;;;;;;;;;;10.60;99.90;;;;;;5075165;28;19958;-77
2021/12/31 03:11:20;;;;;;;;;;;10.60;99.90;;;;;;5074918;28;20373;-77
2021/12/31 03:13:51;;;;;;;;;;;10.60;99.90;;;;;;5076637;28;20011;-76
2021/12/31 03:16:18;;;;;;;;;;;10.60;99.90;;;;;;5074670;28;20488;-78
2021/12/31 03:18:44;;;;;;;;;;;10.50;99.90;;;;;;5076264;28;19915;-77
2021/12/31 03:21:20;;;;;;;;;;;10.50;99.90;;;;;;5076396;28;19912;-77
2021/12/31 03:23:46;;;;;;;;;;;10.40;99.90;;;;;;5074594;28;19916;-76
2021/12/31 03:26:11;;;;;;;;;;;10.30;99.90;;;;;;5075657;28;20304;-77
2021/12/31 03:28:37;;;;;;;;;;;10.20;99.90;;;;;;5075130;28;19913;-76
2021/12/31 03:31:02;;;;;;;;;;;10.10;99.90;;;;;;5076490;28;20353;-76
2021/12/31 03:33:28;;;;;;;;;;;10.10;99.90;;;;;;5075929;28;19915;-78
2021/12/31 03:35:53;;;;;;;;;;;10.10;99.90;;;;;;5075748;28;20369;-77
2021/12/31 03:38:19;;;;;;;;;;;10.20;99.90;;;;;;5075827;28;19908;-77
2021/12/31 03:40:46;;;;;;;;;;;10.20;99.90;;;;;;5075693;28;19958;-75
2021/12/31 03:43:12;;;;;;;;;;;10.10;99.90;;;;;;5076092;28;19995;-77
2021/12/31 03:45:38;;;;;;;;;;;10.10;99.90;;;;;;5075862;28;19947;-77
2021/12/31 03:48:04;;;;;;;;;;;10.10;99.90;;;;;;5075755;28;19916;-77
2021/12/31 03:50:29;;;;;;;;;;;10.20;99.90;;;;;;5075756;28;19909;-77
2021/12/31 03:52:55;;;;;;;;;;;10.20;99.90;;;;;;5075544;28;19915;-77
2021/12/31 03:55:21;;;;;;;;;;;10.30;99.90;;;;;;5075499;28;19912;-77
2021/12/31 03:57:47;;;;;;;;;;;10.20;99.90;;;;;;5075500;28;19995;-77
2021/12/31 04:00:13;;;;;;;;;;;10.20;99.90;;;;;;5075405;28;19908;-77
2021/12/31 04:02:38;;;;;;;;;;;10.20;99.90;;;;;;5074078;28;20427;-77
2021/12/31 04:05:04;;;;;;;;;;;10.20;99.90;;;;;;5075692;28;19915;-78
2021/12/31 04:07:30;;;;;;;;;;;10.30;99.90;;;;;;5073940;28;19958;-75
2021/12/31 04:09:55;;;;;;;;;;;10.40;99.90;;;;;;5073937;28;19908;-77
2021/12/31 04:12:21;;;;;;;;;;;10.50;99.90;;;;;;5074984;28;20341;-77
2021/12/31 04:14:46;;;;;;;;;;;10.50;99.90;;;;;;5075437;28;20512;-78
2021/12/31 04:17:12;;;;;;;;;;;10.50;99.90;;;;;;5075046;28;19915;-78
2021/12/31 04:19:38;;;;;;;;;;;10.60;99.90;;;;;;5075227;28;19912;-77
2021/12/31 04:22:06;;;;;;;;;;;10.70;99.90;;;;;;5075088;28;19909;-76
2021/12/31 04:27:10;;;;;;;;;;;10.70;99.90;;;;;;5074588;28;20335;-76
2021/12/31 04:29:36;;;;;;;;;;;10.80;99.90;;;;;;5074937;28;20090;-75
2021/12/31 04:32:01;;;;;;;;;;;10.70;99.90;;;;;;5074841;28;20444;-76
2021/12/31 04:34:28;;;;;;;;;;;10.80;99.90;;;;;;5075032;28;20284;-77
2021/12/31 04:36:53;;;;;;;;;;;10.90;99.90;;;;;;5073343;28;19912;-77
2021/12/31 04:39:19;;;;;;;;;;;10.90;99.90;;;;;;5074241;28;20415;-77
2021/12/31 04:41:44;;;;;;;;;;;10.90;99.90;;;;;;5074597;28;19915;-78
2021/12/31 04:44:10;;;;;;;;;;;10.80;99.90;;;;;;5073217;28;19919;-77
2021/12/31 04:46:35;;;;;;;;;;;10.80;99.90;;;;;;5073198;28;19908;-77
2021/12/31 04:49:01;;;;;;;;;;;10.90;99.90;;;;;;5074472;28;19915;-76
2021/12/31 04:51:27;;;;;;;;;;;10.90;99.90;;;;;;5074446;28;20300;-78
2021/12/31 04:53:52;;;;;;;;;;;10.90;99.90;;;;;;5074354;28;19915;-76
2021/12/31 04:56:18;;;;;;;;;;;10.90;99.90;;;;;;5074203;28;20007;-76
2021/12/31 04:58:44;;;;;;;;;;;10.90;99.90;;;;;;5074302;28;19915;-77
2021/12/31 05:01:09;;;;;;;;;;;11.00;99.90;;;;;;5074390;28;19950;-77
2021/12/31 05:03:35;;;;;;;;;;;11.00;99.90;;;;;;5074424;28;19908;-77
2021/12/31 05:06:00;;;;;;;;;;;10.90;99.90;;;;;;5074179;28;19909;-77
2021/12/31 05:08:26;;;;;;;;;;;10.90;99.90;;;;;;5074151;28;20420;-78
2021/12/31 05:10:51;;;;;;;;;;;11.00;99.90;;;;;;5073985;28;20281;-77
2021/12/31 05:13:19;;;;;;;;;;;10.90;99.90;;;;;;5073645;28;19936;-75
2021/12/31 05:15:46;;;;;;;;;;;11.00;99.90;;;;;;5073936;28;19916;-76
2021/12/31 05:18:14;;;;;;;;;;;11.00;99.90;;;;;;5072084;28;20450;-76
2021/12/31 05:20:40;;;;;;;;;;;11.10;99.90;;;;;;5073971;28;19991;-78
2021/12/31 05:23:06;;;;;;;;;;;11.10;99.90;;;;;;5073910;28;19908;-78
2021/12/31 05:25:32;;;;;;;;;;;11.20;99.90;;;;;;5072911;28;19908;-77
2021/12/31 05:27:57;;;;;;;;;;;11.20;99.90;;;;;;5073830;28;19948;-76
2021/12/31 05:30:23;;;;;;;;;;;11.20;99.90;;;;;;5073824;28;19991;-75
2021/12/31 05:32:48;;;;;;;;;;;11.20;99.90;;;;;;5073838;28;19908;-76
2021/12/31 05:35:14;;;;;;;;;;;11.30;99.90;;;;;;5073635;28;19912;-75
2021/12/31 05:37:40;;;;;;;;;;;11.30;99.90;;;;;;5074120;28;19915;-77
2021/12/31 05:40:06;;;;;;;;;;;11.30;99.90;;;;;;5072283;28;20340;-77
2021/12/31 05:42:31;;;;;;;;;;;11.40;99.90;;;;;;5074000;28;19908;-76
2021/12/31 05:44:57;;;;;;;;;;;11.50;99.90;;;;;;5073647;28;20324;-76
2021/12/31 05:47:23;;;;;;;;;;;11.50;99.90;;;;;;5073626;28;19908;-77
2021/12/31 05:49:49;;;;;;;;;;;11.50;99.90;;;;;;5071542;28;19916;-76
2021/12/31 05:52:14;;;;;;;;;;;11.50;99.90;;;;;;5073895;28;20373;-78
2021/12/31 05:54:40;;;;;;;;;;;11.40;99.90;;;;;;5073504;28;19959;-77
2021/12/31 05:57:06;;;;;;;;;;;11.50;99.90;;;;;;5073811;28;19983;-76
2021/12/31 05:59:31;;;;;;;;;;;11.50;99.90;;;;;;5073437;28;19916;-78
2021/12/31 06:01:57;;;;;;;;;;;11.40;99.90;;;;;;5073408;28;19912;-76
2021/12/31 06:04:22;;;;;;;;;;;11.50;99.90;;;;;;5073627;28;20323;-76
2021/12/31 06:06:48;;;;;;;;;;;11.50;99.90;;;;;;5073466;28;19932;-78
2021/12/31 06:09:14;;;;;;;;;;;11.50;99.90;;;;;;5073565;28;19947;-76
2021/12/31 06:11:40;;;;;;;;;;;11.50;99.90;;;;;;5071903;28;20336;-75
2021/12/31 06:14:06;;;;;;;;;;;11.50;99.90;;;;;;5073487;28;20429;-77
2021/12/31 06:16:35;;;;;;;;;;;11.50;99.90;;;;;;5072048;28;19916;-76
2021/12/31 06:19:02;;;;;;;;;;;11.40;99.90;;;;;;5073470;28;20020;-78
2021/12/31 06:21:28;;;;;;;;;;;11.50;99.90;;;;;;5073443;28;20351;-75
2021/12/31 06:23:54;;;;;;;;;;;11.60;99.90;;;;;;5073265;28;19944;-76
2021/12/31 06:26:19;;;;;;;;;;;11.50;99.90;;;;;;5071939;28;19940;-77
2021/12/31 06:28:45;;;;;;;;;;;11.50;99.90;;;;;;5073227;28;20372;-78
2021/12/31 06:31:10;;;;;;;;;;;11.60;99.90;;;;;;5073338;28;19912;-78
2021/12/31 06:33:36;;;;;;;;;;;11.60;99.90;;;;;;5073178;28;19979;-76
2021/12/31 06:36:01;;;;;;;;;;;11.60;99.90;;;;;;5073047;28;19912;-76
2021/12/31 06:38:27;;;;;;;;;;;11.50;99.90;;;;;;5073393;28;20351;-78
2021/12/31 06:40:53;;;;;;;;;;;11.50;99.90;;;;;;5073425;28;19909;-76
2021/12/31 06:43:18;;;;;;;;;;;11.60;99.90;;;;;;5073112;28;19915;-76
2021/12/31 06:45:44;;;;;;;;;;;11.60;99.90;;;;;;5071738;28;20011;-76
2021/12/31 06:48:09;;;;;;;;;;;11.50;99.90;;;;;;5073085;28;19919;-76
2021/12/31 06:50:35;;;;;;;;;;;11.50;99.90;;;;;;5073133;28;19958;-76
2021/12/31 06:53:02;;;;;;;;;;;11.50;99.90;;;;;;5073290;28;19973;-78
2021/12/31 06:55:28;;;;;;;;;;;11.60;99.90;;;;;;5073035;28;19923;-76
2021/12/31 06:57:54;;;;;;;;;;;11.60;99.90;;;;;;5073044;28;19909;-76
2021/12/31 07:00:19;;;;;;;;;;;11.50;99.90;;;;;;5072907;28;19915;-76
2021/12/31 07:02:45;;;;;;;;;;;11.50;99.90;;;;;;5076043;28;19909;-77
2021/12/31 07:05:11;;;;;;;;;;;11.60;99.90;;;;;;5076550;28;20383;-77
2021/12/31 07:07:37;;;;;;;;;;;11.60;99.90;;;;;;5076498;28;19915;-77
2021/12/31 07:10:04;;;;;;;;;;;11.60;99.90;;;;;;5075081;28;19986;-77
2021/12/31 07:12:29;;;;;;;;;;;11.60;99.90;;;;;;5076149;28;19920;-76
2021/12/31 07:14:55;;;;;;;;;;;11.50;99.90;;;;;;5075019;28;19915;-77
2021/12/31 07:17:21;;;;;;;;;;;11.40;99.90;;;;;;5076241;28;20432;-78
2021/12/31 07:19:46;;;;;;;;;;;11.30;99.90;;;;;;5076237;28;19913;-76
2021/12/31 07:22:13;;;;;;;;;;;11.30;99.90;;;;;;5076186;28;19908;-77
2021/12/31 07:24:38;;;;;;;;;;;11.20;99.90;;;;;;5076554;28;19955;-78
2021/12/31 07:27:04;;;;;;;;;;;11.10;99.90;;;;;;5076104;28;20384;-77
2021/12/31 07:29:29;;;;;;;;;;;11.10;99.90;;;;;;5076016;28;19958;-76
2021/12/31 07:31:55;;;;;;;;;;;11.10;99.90;;;;;;5076068;28;19908;-76
2021/12/31 07:34:21;;;;;;;;;;;11.10;99.90;;;;;;5076087;28;19909;-75
2021/12/31 07:36:46;;;;;;;;;;;11.10;99.90;;;;;;5075798;28;19912;-76
2021/12/31 07:39:13;;;;;;;;;;;11.10;99.90;;;;;;5076058;28;19909;-77
2021/12/31 07:41:39;;;;;;;;;;;11.40;99.90;;;;;;5075871;28;19908;-76
2021/12/31 07:44:06;;;;;;;;;;;11.40;99.90;;;;;;5075846;28;19908;-77
2021/12/31 07:46:32;;;;;;;;;;;11.50;99.90;;;;;;5074461;28;19958;-76
2021/12/31 07:48:57;;;;;;;;;;;11.40;99.90;;;;;;5075682;28;19912;-76
2021/12/31 07:51:23;;;;;;;;;;;11.30;99.90;;;;;;5075725;28;20042;-77
2021/12/31 07:53:48;;;;;;;;;;;11.30;99.90;;;;;;5075585;28;19909;-76
2021/12/31 07:56:18;;;;;;;;;;;11.20;99.90;;;;;;5075491;28;19946;-76
2021/12/31 07:58:44;;;;;;;;;;;11.20;99.90;;;;;;5075440;28;20257;-78
2021/12/31 08:01:10;;;;;;;;;;;11.10;99.90;;;;;;5075508;28;19912;-77
2021/12/31 08:03:36;;;;;;;;;;;11.10;99.90;;;;;;5075446;28;19935;-76
2021/12/31 08:06:01;;;;;;;;;;;11.10;99.90;;;;;;5075418;28;19909;-77
2021/12/31 08:08:27;;;;;;;;;;;11.20;99.90;;;;;;5075449;28;19916;-77
2021/12/31 08:10:52;;;;;;;;;;;11.20;99.90;;;;;;5075229;28;19944;-76
2021/12/31 08:13:18;;;;;;;;;;;11.20;99.90;;;;;;5074009;28;20010;-77
2021/12/31 08:15:44;;;;;;;;;;;11.30;99.90;;;;;;5075138;28;20328;-76
2021/12/31 08:18:10;;;;;;;;;;;11.30;99.90;;;;;;5075350;28;19909;-75
2021/12/31 08:20:36;;;;;;;;;;;11.40;99.90;;;;;;5073746;28;19963;-76
2021/12/31 08:23:14;;;;;;;;;;;11.50;99.90;;;;;;5075483;28;20323;-77
2021/12/31 08:25:41;;;;;;;;;;;11.50;99.90;;;;;;5075326;28;19908;-76
2021/12/31 08:28:06;;;;;;;;;;;11.60;99.90;;;;;;5073630;28;20319;-76
2021/12/31 08:30:32;;;;;;;;;;;11.60;99.90;;;;;;5074831;28;19915;-75
2021/12/31 08:32:58;;;;;;;;;;;11.70;99.90;;;;;;5075381;28;19954;-76
2021/12/31 08:35:24;;;;;;;;;;;11.70;99.90;;;;;;5074677;28;19956;-76
2021/12/31 08:37:50;;;;;;;;;;;11.60;99.90;;;;;;5074677;28;19914;-77
2021/12/31 08:40:16;;;;;;;;;;;11.80;99.90;;;;;;5074679;28;19908;-78
2021/12/31 08:42:41;;;;;;;;;;;11.80;99.90;;;;;;5074649;28;19908;-77
2021/12/31 08:45:07;;;;;;;;;;;11.90;99.90;;;;;;5074453;28;19915;-78
2021/12/31 08:47:33;;;;;;;;;;;12.30;99.90;;;;;;5073235;28;19909;-78
2021/12/31 08:49:58;;;;;;;;;;;12.60;99.90;;;;;;5074784;28;19908;-77
2021/12/31 08:52:24;;;;;;;;;;;12.90;99.90;;;;;;5074497;28;20030;-76
2021/12/31 08:54:49;;;;;;;;;;;13.00;99.90;;;;;;5074418;28;19912;-77
2021/12/31 08:57:15;;;;;;;;;;;13.00;99.90;;;;;;5074305;28;20349;-76
2021/12/31 08:59:41;;;;;;;;;;;12.80;99.90;;;;;;5074460;28;19908;-77
2021/12/31 09:02:07;;;;;;;;;;;12.80;99.90;;;;;;5074140;28;19934;-76
2021/12/31 09:04:33;;;;;;;;;;;12.70;99.90;;;;;;5074234;28;19940;-76
2021/12/31 09:06:59;;;;;;;;;;;12.50;99.90;;;;;;5072894;28;19974;-78
2021/12/31 09:09:24;;;;;;;;;;;12.40;99.90;;;;;;5072875;28;20254;-76
2021/12/31 09:11:50;;;;;;;;;;;12.20;99.90;;;;;;5074020;28;19924;-76
2021/12/31 09:14:15;;;;;;;;;;;12.30;99.90;;;;;;5074040;28;19914;-77
2021/12/31 09:16:45;;;;;;;;;;;12.30;99.90;;;;;;5073901;28;19912;-76
2021/12/31 09:19:11;;;;;;;;;;;12.40;99.90;;;;;;5074161;28;20348;-76
2021/12/31 09:21:37;;;;;;;;;;;12.50;99.90;;;;;;5073926;28;20021;-77
2021/12/31 09:24:03;;;;;;;;;;;12.70;99.90;;;;;;5073952;28;20379;-76
2021/12/31 09:26:28;;;;;;;;;;;12.80;99.90;;;;;;5073962;28;19918;-77
2021/12/31 09:28:54;;;;;;;;;;;12.80;99.90;;;;;;5073882;28;20000;-78
2021/12/31 09:31:19;;;;;;;;;;;12.90;99.90;;;;;;5073794;28;19909;-77
2021/12/31 09:33:45;;;;;;;;;;;13.00;99.90;;;;;;5072461;28;19995;-76
2021/12/31 09:36:11;;;;;;;;;;;13.10;99.90;;;;;;5073945;28;20361;-76
2021/12/31 09:38:36;;;;;;;;;;;13.10;99.90;;;;;;5072471;28;19916;-77
2021/12/31 09:41:02;;;;;;;;;;;13.10;99.90;;;;;;5073674;28;19916;-78
2021/12/31 09:43:28;;;;;;;;;;;13.10;99.90;;;;;;5072382;28;19916;-77
2021/12/31 09:45:54;;;;;;;;;;;13.20;99.90;;;;;;5073857;28;19940;-77
2021/12/31 09:48:20;;;;;;;;;;;13.30;99.90;;;;;;5072361;28;20380;-77
2021/12/31 09:50:47;;;;;;;;;;;13.20;99.90;;;;;;5073670;28;19908;-77
2021/12/31 09:53:14;;;;;;;;;;;13.20;99.90;;;;;;5073613;28;19909;-75
2021/12/31 09:55:41;;;;;;;;;;;13.20;99.90;;;;;;5073462;28;19920;-76
2021/12/31 09:58:07;;;;;;;;;;;13.40;99.90;;;;;;5072175;28;19916;-76
2021/12/31 10:00:33;;;;;;;;;;;13.50;99.90;;;;;;5073799;28;19909;-77
2021/12/31 10:03:11;;;;;;;;;;;13.50;99.90;;;;;;5073653;28;20443;-77
2021/12/31 10:05:48;;;;;;;;;;;13.50;99.90;;;;;;5073470;28;19908;-77
2021/12/31 10:08:17;;;;;;;;;;;13.50;99.90;;;;;;5072159;28;20021;-76
2021/12/31 10:10:43;;;;;;;;;;;13.50;99.90;;;;;;5072172;28;20004;-76
2021/12/31 10:13:09;;;;;;;;;;;13.30;99.90;;;;;;5071709;28;20460;-76
2021/12/31 10:15:39;;;;;;;;;;;13.30;99.90;;;;;;5073344;28;20011;-78
2021/12/31 10:18:09;;;;;;;;;;;13.30;99.90;;;;;;5073332;28;19909;-77
2021/12/31 10:20:55;;;;;;;;;;;13.40;99.90;;;;;;5073789;28;20418;-78
2021/12/31 10:23:20;;;;;;;;;;;13.50;99.90;;;;;;5071647;28;19966;-76
2021/12/31 10:25:46;;;;;;;;;;;13.60;99.90;;;;;;5073325;28;19908;-76
2021/12/31 10:28:14;;;;;;;;;;;13.60;99.90;;;;;;5073261;28;19915;-78
2021/12/31 10:30:40;;;;;;;;;;;13.70;99.90;;;;;;5073281;28;20319;-76
2021/12/31 10:33:06;;;;;;;;;;;13.70;99.90;;;;;;5073226;28;19909;-76
2021/12/31 10:35:38;;;;;;;;;;;13.70;99.90;;;;;;5073319;28;20424;-78
2021/12/31 10:38:04;;;;;;;;;;;13.60;99.90;;;;;;5076678;28;19908;-76
2021/12/31 10:40:36;;;;;;;;;;;13.60;99.90;;;;;;5076960;28;19916;-75
2021/12/31 10:43:15;;;;;;;;;;;13.80;99.90;;;;;;5077051;28;19909;-76
2021/12/31 10:46:00;;;;;;;;;;;13.60;99.90;;;;;;5076833;28;19908;-78
2021/12/31 10:48:39;;;;;;;;;;;13.50;99.90;;;;;;5075497;28;19909;-78
2021/12/31 10:51:05;;;;;;;;;;;13.60;99.90;;;;;;5076775;28;19916;-76
2021/12/31 10:53:34;;;;;;;;;;;13.70;99.90;;;;;;5076802;28;19909;-78
2021/12/31 10:56:10;;;;;;;;;;;13.70;99.90;;;;;;5076581;28;19913;-76
2021/12/31 10:58:36;;;;;;;;;;;13.80;99.90;;;;;;5076646;28;19909;-76
2021/12/31 11:01:07;;;;;;;;;;;14.00;99.90;;;;;;5075297;28;19909;-76
2021/12/31 11:03:33;;;;;;;;;;;14.10;99.90;;;;;;5076468;28;19948;-77
2021/12/31 11:06:00;;;;;;;;;;;14.30;99.90;;;;;;5076422;28;19958;-77
2021/12/31 11:08:26;;;;;;;;;;;14.20;99.90;;;;;;5076642;28;19954;-78
2021/12/31 11:10:52;;;;;;;;;;;14.10;99.90;;;;;;5076622;28;19934;-77
2021/12/31 11:13:19;;;;;;;;;;;14.40;99.90;;;;;;5075965;28;19931;-78
2021/12/31 11:15:45;;;;;;;;;;;14.30;99.90;;;;;;5076332;28;19919;-76
2021/12/31 11:18:18;;;;;;;;;;;14.50;99.90;;;;;;5076246;28;20292;-76
2021/12/31 11:20:45;;;;;;;;;;;14.40;99.90;;;;;;5074721;28;19908;-76
2021/12/31 11:23:11;;;;;;;;;;;14.60;99.90;;;;;;5076413;28;19947;-77
2021/12/31 11:25:48;;;;;;;;;;;14.70;99.90;;;;;;5076129;28;20332;-78
2021/12/31 11:28:22;;;;;;;;;;;14.70;99.90;;;;;;5076383;28;19909;-77
2021/12/31 11:30:49;;;;;;;;;;;14.50;99.90;;;;;;5076331;28;20336;-76
2021/12/31 11:33:17;;;;;;;;;;;14.50;99.90;;;;;;5076056;28;19962;-76
2021/12/31 11:36:05;;;;;;;;;;;14.40;99.90;;;;;;5075891;28;19912;-77
2021/12/31 11:38:30;;;;;;;;;;;14.60;99.90;;;;;;5076025;28;20418;-78
2021/12/31 11:41:04;;;;;;;;;;;14.60;99.90;;;;;;5074513;28;19912;-77
2021/12/31 11:43:30;;;;;;;;;;;14.50;99.90;;;;;;5075786;28;19912;-77
2021/12/31 11:46:12;;;;;;;;;;;14.60;99.90;;;;;;5075764;28;19908;-76
2021/12/31 11:48:52;;;;;;;;;;;14.70;99.90;;;;;;5074565;28;20287;-76
2021/12/31 11:51:28;;;;;;;;;;;14.60;99.90;;;;;;5075769;28;19994;-78
2021/12/31 11:54:00;;;;;;;;;;;14.30;99.90;;;;;;5075914;28;20307;-76
2021/12/31 11:56:34;;;;;;;;;;;14.40;99.90;;;;;;5075474;28;20434;-78
2021/12/31 11:59:09;;;;;;;;;;;14.80;99.90;;;;;;5075833;28;19915;-78
2021/12/31 12:01:48;;;;;;;;;;;15.00;99.90;;;;;;5075481;28;19912;-77
2021/12/31 12:04:22;;;;;;;;;;;15.00;99.90;;;;;;5075792;28;19973;-75
2021/12/31 12:06:52;;;;;;;;;;;14.90;99.90;;;;;;5075445;28;20011;-75
2021/12/31 12:09:18;;;;;;;;;;;15.00;99.90;;;;;;5075254;28;19951;-78
2021/12/31 12:12:03;;;;;;;;;;;15.00;99.90;;;;;;5074953;28;19959;-76
2021/12/31 12:14:36;;;;;;;;;;;14.90;99.90;;;;;;5075313;28;20281;-75
2021/12/31 12:17:03;;;;;;;;;;;15.00;99.90;;;;;;5075200;28;20011;-78
2021/12/31 12:19:47;;;;;;;;;;;15.10;99.90;;;;;;5075001;28;20003;-78
2021/12/31 12:22:22;;;;;;;;;;;14.90;99.90;;;;;;5075169;28;19908;-75
2021/12/31 12:24:47;;;;;;;;;;;14.90;99.90;;;;;;5075019;28;20327;-77
2021/12/31 12:27:13;;;;;;;;;;;14.90;99.90;;;;;;5074928;28;19916;-76
2021/12/31 12:29:39;;;;;;;;;;;14.80;99.90;;;;;;5074897;28;19915;-77
2021/12/31 12:32:08;;;;;;;;;;;14.90;99.90;;;;;;5074792;28;20336;-76
2021/12/31 12:34:34;;;;;;;;;;;14.90;99.90;;;;;;5074707;28;19944;-76
2021/12/31 12:37:00;;;;;;;;;;;14.90;99.90;;;;;;5074727;28;20365;-75
2021/12/31 12:39:26;;;;;;;;;;;14.80;99.90;;;;;;5074717;28;19908;-78
2021/12/31 12:41:52;;;;;;;;;;;14.80;99.90;;;;;;5074554;28;19962;-77
2021/12/31 12:44:17;;;;;;;;;;;14.80;99.90;;;;;;5075135;28;19913;-78
2021/12/31 12:46:55;;;;;;;;;;;14.90;99.90;;;;;;5074548;28;19954;-77
2021/12/31 12:49:23;;;;;;;;;;;15.10;99.90;;;;;;5074535;28;19962;-76
2021/12/31 12:51:49;;;;;;;;;;;15.10;99.90;;;;;;5073145;28;19909;-77
2021/12/31 12:54:21;;;;;;;;;;;15.30;99.90;;;;;;5074617;28;19961;-77
2021/12/31 12:56:47;;;;;;;;;;;15.40;99.90;;;;;;5074657;28;19914;-78
2021/12/31 12:59:23;;;;;;;;;;;15.30;99.90;;;;;;5074064;28;19908;-78
2021/12/31 13:01:49;;;;;;;;;;;15.30;99.90;;;;;;5072893;28;19954;-77
2021/12/31 13:04:16;;;;;;;;;;;15.40;99.90;;;;;;5072946;28;20395;-77
2021/12/31 13:06:55;;;;;;;;;;;15.70;99.90;;;;;;5074669;28;19946;-76
2021/12/31 13:09:23;;;;;;;;;;;15.70;99.90;;;;;;5074299;28;19944;-76
2021/12/31 13:11:51;;;;;;;;;;;16.10;99.90;;;;;;5073995;28;19924;-77
2021/12/31 13:14:18;;;;;;;;;;;16.20;99.90;;;;;;5074052;28;19908;-77
2021/12/31 13:16:44;;;;;;;;;;;16.20;99.90;;;;;;5072696;28;19913;-77
2021/12/31 13:19:11;;;;;;;;;;;16.00;99.90;;;;;;5072706;28;19909;-77
2021/12/31 13:21:37;;;;;;;;;;;15.90;99.90;;;;;;5073943;28;19908;-76
2021/12/31 13:24:03;;;;;;;;;;;16.00;99.90;;;;;;5073911;28;19908;-75
2021/12/31 13:26:33;;;;;;;;;;;16.00;99.90;;;;;;5074284;28;19908;-76
2021/12/31 13:29:00;;;;;;;;;;;15.90;99.90;;;;;;5074072;28;19908;-78
2021/12/31 13:31:33;;;;;;;;;;;15.90;99.90;;;;;;5073802;28;19931;-78
2021/12/31 13:34:09;;;;;;;;;;;16.00;99.90;;;;;;5073681;28;19917;-77
2021/12/31 13:36:42;;;;;;;;;;;15.90;99.90;;;;;;5072121;28;20368;-77
2021/12/31 13:39:10;;;;;;;;;;;15.90;99.90;;;;;;5073844;28;20395;-78
2021/12/31 13:41:41;;;;;;;;;;;15.90;99.90;;;;;;5073684;28;19954;-77
2021/12/31 13:44:07;;;;;;;;;;;15.80;99.90;;;;;;5073917;28;19908;-76
2021/12/31 13:46:40;;;;;;;;;;;16.40;99.90;;;;;;5073520;28;19943;-77
2021/12/31 13:49:17;;;;;;;;;;;17.30;99.90;;;;;;5072351;28;19909;-76
2021/12/31 13:51:43;;;;;;;;;;;17.50;99.90;;;;;;5073751;28;20003;-77
2021/12/31 13:54:10;;;;;;;;;;;17.20;99.90;;;;;;5073594;28;19955;-77
2021/12/31 13:56:40;;;;;;;;;;;16.80;99.90;;;;;;5073800;28;20019;-76
2021/12/31 13:59:14;;;;;;;;;;;16.70;99.90;;;;;;5073647;28;20001;-78
2021/12/31 14:01:40;;;;;;;;;;;16.80;99.90;;;;;;5073496;28;19908;-77
2021/12/31 14:04:12;;;;;;;;;;;16.60;99.90;;;;;;5072197;28;19915;-78
2021/12/31 14:06:39;;;;;;;;;;;16.30;99.90;;;;;;5073490;28;20372;-76
2021/12/31 14:09:05;;;;;;;;;;;16.20;99.90;;;;;;5073440;28;19909;-76
2021/12/31 14:11:31;;;;;;;;;;;15.90;99.90;;;;;;5074409;28;20038;-77
2021/12/31 14:13:56;;;;;;;;;;;15.90;99.90;;;;;;5077892;28;19915;-77
2021/12/31 14:16:22;;;;;;;;;;;16.00;99.90;;;;;;5077379;28;19958;-76
2021/12/31 14:18:47;;;;;;;;;;;16.10;99.90;;;;;;5077454;28;19919;-76
2021/12/31 14:21:13;;;;;;;;;;;16.20;99.90;;;;;;5077318;28;19912;-76